Latest Weather Observations for Bunbury

IDW60801

Issued at 10:04 pm WST Tuesday 21 February 2017 (issued every 30 minutes, with the page automatically refreshed every 10 minutes)

About weather observations | Map of weather stations | Latest weather observations for WA | Other Formats
Station Details ID: 009965 Name: BUNBURY Lat: -33.36 Lon: 115.64 Height: 5.2 m
Data from the previous 72 hours. | See also: Recent months at Bunbury
Date/Time
WST
Temp
°C
App
Temp
°C
Dew
Point
°C
Rel
Hum
%
Delta-T
°C
Wind Press
QNH
hPa
Press
MSL
hPa
Rain since
9am
mm
Dir  Spd
km/h
Gust
km/h
Spd
kts
Gust
kts
21/10:00pm 13.4 12.1 7.8 69 2.7 S 4 6 2 3 - 1019.3 -
21/09:30pm 13.8 12.4 7.3 65 3.2 SSW 4 6 2 3 1019.4 1019.3 0.2
21/09:00pm 14.5 12.8 7.5 63 3.4 S 6 9 3 5 1019.1 1019.0 0.2
21/08:30pm 15.0 13.1 7.5 61 3.7 S 7 11 4 6 1018.7 1018.6 0.2
21/08:00pm 15.6 13.3 7.4 58 4.1 S 9 15 5 8 1018.5 1018.4 0.2
21/07:30pm 16.3 13.5 7.0 54 4.6 S 11 17 6 9 1018.0 1017.9 0.2
21/07:00pm 17.2 13.2 6.7 50 5.2 SSW 17 24 9 13 1017.6 1017.5 0.2
21/06:30pm 18.3 13.8 6.2 45 6.0 SSW 19 30 10 16 1016.9 1016.8 0.2
21/06:00pm 19.1 14.4 5.9 42 6.5 SSW 20 35 11 19 1016.5 1016.4 0.2
21/05:30pm 20.3 15.6 5.9 39 7.2 SSW 20 33 11 18 1016.0 1015.9 0.2
21/05:00pm 20.2 14.4 6.2 40 7.0 SW 26 39 14 21 1015.7 1015.6 0.2
21/04:30pm 20.4 15.2 7.1 42 6.8 SW 24 41 13 22 1015.4 1015.3 0.2
21/04:00pm 20.9 15.5 6.4 39 7.3 SW 24 39 13 21 1015.3 1015.2 0.2
21/03:30pm 20.5 14.7 7.8 44 6.6 WSW 28 44 15 24 1015.3 1015.2 0.2
21/03:00pm 20.7 15.5 7.3 42 6.9 WSW 24 37 13 20 1015.1 1015.0 0.2
21/02:42pm 20.5 14.8 8.2 45 6.4 SW 28 46 15 25 1015.1 1015.0 0.2
21/02:30pm 20.7 15.1 8.7 46 6.3 SW 28 41 15 22 1015.2 1015.1 0.2
21/02:00pm 21.4 16.2 9.0 45 6.6 WSW 26 41 14 22 1015.3 1015.2 0.2
21/01:30pm 21.1 15.5 7.3 41 7.1 WSW 26 41 14 22 1015.2 1015.1 0.2
21/01:00pm 20.5 14.6 7.5 43 6.7 SW 28 43 15 23 1015.0 1014.9 0.2
21/12:30pm 20.7 15.5 8.7 46 6.3 WSW 26 39 14 21 1014.7 1014.6 0.2
21/12:00pm 20.3 15.0 8.3 46 6.2 WSW 26 41 14 22 1014.8 1014.7 0.2
21/11:30am 20.0 15.3 7.7 45 6.3 WSW 22 39 12 21 1014.8 1014.7 0.2
21/11:00am 20.6 15.0 7.2 42 6.8 SW 26 43 14 23 1014.5 1014.4 0.2
21/10:30am 20.0 15.5 8.4 47 6.0 SW 22 37 12 20 1014.5 1014.4 0.0
21/10:00am - - - - - SW 22 37 12 20 1014.6 1014.5 0.0
21/09:30am - - - - - SW 24 39 13 21 1014.4 1014.3 0.0
21/09:00am - - - - - SW 24 39 13 21 1014.2 1014.1 1.2
21/08:30am - - - - - SW 26 43 14 23 1013.8 1013.8 1.2
21/08:00am - - - - - SSW 22 35 12 19 1013.2 1013.2 1.2
21/07:30am - - - - - SW 24 41 13 22 1012.7 1012.7 1.2
21/07:00am - - - - - SW 19 41 10 22 1012.1 1012.1 1.2
21/06:30am - - - - - SSW 13 22 7 12 1011.8 1011.8 1.2
21/06:00am - - - - - SSW 15 22 8 12 1011.4 1011.4 1.2
21/05:30am - - - - - SSW 17 24 9 13 1011.0 1011.0 1.2
21/05:00am 14.8 12.9 13.0 89 1.0 SSW 15 24 8 13 1010.5 1010.5 1.2
21/04:30am 14.8 13.7 13.0 89 1.0 SSW 11 19 6 10 1010.3 1010.3 1.2
21/04:00am 15.0 10.2 13.0 88 1.1 SW 30 48 16 26 1010.2 1010.2 1.2
21/03:49am 15.9 11.7 13.6 86 1.3 SW 28 48 15 26 1009.9 1009.9 1.0
21/03:30am 16.7 13.5 13.0 79 2.1 W 22 33 12 18 1009.9 1009.9 0.6
21/03:00am 16.8 14.9 14.1 84 1.5 WNW 17 28 9 15 1009.9 1009.9 0.0
21/02:30am 16.3 13.8 13.6 84 1.5 W 19 35 10 19 1010.2 1010.2 0.0
21/02:00am 18.6 15.1 10.2 58 4.5 W 19 28 10 15 1010.4 1010.4 0.0
21/01:30am 18.2 15.4 11.5 65 3.7 W 17 28 9 15 1010.8 1010.8 0.0
21/01:00am 17.8 16.1 12.3 70 3.0 W 13 19 7 10 1011.2 1011.2 0.0
21/12:30am 18.0 14.9 10.4 61 4.1 W 17 24 9 13 1011.8 1011.8 0.0
21/12:00am 17.3 17.2 10.9 66 3.4 SSW 2 6 1 3 1011.9 1011.9 0.0
 
Date/Time
WST
Temp
°C
App
Temp
°C
Dew
Point
°C
Rel
Hum
%
Delta-T
°C
Wind Press
QNH
hPa
Press
MSL
hPa
Rain since
9am
mm
Dir  Spd
km/h
Gust
km/h
Spd
kts
Gust
kts
20/11:30pm 17.8 17.0 10.9 64 3.7 SW 6 9 3 5 1012.4 1012.4 0.0
20/11:00pm 18.0 16.5 10.4 61 4.1 WSW 9 15 5 8 1012.6 1012.6 0.0
20/10:30pm 17.4 15.6 9.6 60 4.1 SW 9 17 5 9 1012.8 1012.8 0.0
20/10:00pm 17.2 15.4 9.6 61 4.0 WSW 9 13 5 7 1012.7 1012.7 0.0
20/09:30pm 17.6 16.0 10.2 62 3.9 WSW 9 15 5 8 1012.5 1012.5 0.0
20/09:00pm 17.3 16.0 11.3 68 3.2 SSW 9 15 5 8 1012.6 1012.6 0.0
20/08:30pm 17.8 15.5 11.6 67 3.4 SW 15 26 8 14 1012.4 1012.4 0.0
20/08:00pm 18.6 15.0 11.7 64 3.8 SW 22 33 12 18 1012.6 1012.6 0.0
20/07:30pm 18.8 15.3 12.3 66 3.6 SW 22 37 12 20 1012.0 1012.0 0.0
20/07:00pm 19.4 16.1 12.9 66 3.7 WSW 22 32 12 17 1011.5 1011.5 0.0
20/06:30pm 19.8 17.1 13.0 65 3.8 WSW 19 33 10 18 1011.0 1011.0 0.0
20/06:00pm 20.8 18.4 13.7 64 4.1 SW 19 30 10 16 1010.6 1010.6 0.0
20/05:30pm 21.3 18.8 14.2 64 4.1 SW 20 32 11 17 1010.3 1010.3 0.0
20/05:00pm 21.9 18.4 14.5 63 4.3 WSW 26 35 14 19 1010.5 1010.5 0.0
20/04:30pm 21.9 18.9 14.8 64 4.2 WSW 24 43 13 23 1010.5 1010.5 0.0
20/04:00pm 23.0 20.7 15.6 63 4.4 WSW 22 37 12 20 1010.6 1010.6 0.0
20/03:30pm 22.6 19.8 15.4 64 4.3 W 24 43 13 23 1010.9 1010.9 0.0
20/03:00pm 21.9 17.9 15.3 66 3.9 W 30 43 16 23 1011.0 1011.0 0.0
20/02:30pm 22.7 19.6 15.5 64 4.3 W 26 39 14 21 1011.1 1011.1 0.0
20/02:00pm 23.3 20.3 14.8 59 5.0 W 24 35 13 19 1011.3 1011.3 0.0
20/01:30pm 23.4 20.4 14.7 58 5.2 W 24 35 13 19 1011.8 1011.8 0.0
20/01:00pm 23.7 21.1 14.9 57 5.2 W 22 32 12 17 1012.2 1012.2 0.0
20/12:30pm 24.1 21.8 14.2 54 5.8 W 19 30 10 16 1012.3 1012.3 0.0
20/12:00pm 23.6 20.8 13.2 52 6.0 W 20 28 11 15 1012.5 1012.5 0.0
20/11:30am 24.4 22.2 13.3 50 6.5 W 17 26 9 14 1012.9 1012.9 0.0
20/11:00am 23.8 22.0 12.1 48 6.6 S 13 26 7 14 1013.3 1013.3 0.0
20/10:30am 23.4 21.2 12.1 49 6.4 SSW 15 22 8 12 1013.6 1013.6 0.0
20/10:00am 21.9 19.2 11.6 52 5.7 S 17 26 9 14 1014.1 1014.0 0.0
20/09:30am 20.8 19.1 12.5 59 4.7 S 13 24 7 13 1014.2 1014.1 0.0
20/09:00am 21.3 19.0 13.0 59 4.7 S 17 28 9 15 1014.3 1014.2 0.0
20/08:30am 19.1 16.1 12.1 64 3.9 S 19 32 10 17 1014.5 1014.4 0.0
20/08:00am 19.0 17.5 13.0 68 3.4 SSE 13 20 7 11 1014.5 1014.4 0.0
20/07:30am 18.3 17.6 13.2 72 2.9 SSE 9 13 5 7 1014.5 1014.4 0.0
20/07:00am 17.1 16.8 13.2 78 2.2 SSE 7 11 4 6 1014.5 1014.4 0.0
20/06:30am 15.9 15.7 13.0 83 1.6 SSE 6 9 3 5 1014.3 1014.2 0.0
20/06:00am 15.8 15.4 12.9 83 1.6 S 7 11 4 6 1014.1 1014.0 0.0
20/05:30am 15.9 15.5 13.0 83 1.6 S 7 9 4 5 1013.7 1013.7 0.0
20/05:00am 16.3 15.2 13.2 82 1.7 S 11 13 6 7 1013.5 1013.5 0.0
20/04:30am 16.6 16.0 13.5 82 1.7 S 9 15 5 8 1013.3 1013.3 0.0
20/04:00am 17.1 16.3 14.0 82 1.8 S 11 17 6 9 1013.2 1013.2 0.0
20/03:30am 17.5 16.8 14.2 81 1.9 SSW 11 17 6 9 1013.1 1013.1 0.0
20/03:00am 17.9 17.2 14.2 79 2.1 S 11 17 6 9 1012.8 1012.8 0.0
20/02:30am 18.3 17.7 14.6 79 2.1 S 11 15 6 8 1012.6 1012.6 0.0
20/02:00am 18.7 18.2 15.0 79 2.2 SSW 11 17 6 9 1012.5 1012.5 0.0
20/01:30am 19.2 19.2 15.1 77 2.4 S 9 15 5 8 1012.5 1012.5 0.0
20/01:00am 19.7 19.4 15.4 76 2.5 S 11 19 6 10 1012.6 1012.6 0.0
20/12:30am 20.1 19.8 15.5 75 2.7 S 11 17 6 9 1012.8 1012.8 0.0
20/12:00am 20.9 20.2 15.4 71 3.3 S 13 19 7 10 1012.9 1012.9 0.0
 
Date/Time
WST
Temp
°C
App
Temp
°C
Dew
Point
°C
Rel
Hum
%
Delta-T
°C
Wind Press
QNH
hPa
Press
MSL
hPa
Rain since
9am
mm
Dir  Spd
km/h
Gust
km/h
Spd
kts
Gust
kts
19/11:30pm 21.6 20.0 13.8 61 4.5 SSW 15 22 8 12 1013.2 1013.2 0.0
19/11:00pm 21.9 21.2 13.3 58 4.9 SSW 9 13 5 7 1013.1 1013.1 0.0
19/10:30pm 22.3 22.0 13.4 57 5.1 S 7 11 4 6 1013.1 1013.1 0.0
19/10:00pm 23.0 22.6 14.0 57 5.3 S 9 13 5 7 1013.1 1013.1 0.0
19/09:30pm 24.0 23.6 14.1 54 5.8 S 9 13 5 7 1013.0 1013.0 0.0
19/09:00pm 24.9 23.9 14.7 53 6.1 S 13 19 7 10 1012.8 1012.8 0.0
19/08:30pm 24.8 25.5 16.0 58 5.4 S 7 13 4 7 1012.6 1012.6 0.0
19/08:00pm 24.6 24.4 16.8 62 4.8 SW 13 20 7 11 1012.1 1012.1 0.0
19/07:30pm 25.1 24.8 16.5 59 5.3 SW 13 20 7 11 1011.9 1011.9 0.0
19/07:00pm 25.3 25.6 15.9 56 5.7 SW 9 15 5 8 1011.7 1011.7 0.0
19/06:30pm 26.7 27.1 15.4 50 6.9 WSW 7 15 4 8 1011.5 1011.5 0.0
19/06:00pm 27.5 27.7 14.8 45 7.7 WSW 7 13 4 7 1011.3 1011.3 0.0
19/05:30pm 28.4 28.3 13.9 41 8.7 WSW 7 13 4 7 1011.5 1011.5 0.0
19/05:00pm 28.8 27.2 12.7 37 9.5 SW 13 19 7 10 1011.7 1011.7 0.0
19/04:30pm 28.9 27.0 11.9 35 9.9 WSW 13 20 7 11 1011.8 1011.8 0.0
19/04:00pm 29.6 27.3 11.6 33 10.4 WSW 15 24 8 13 1011.9 1011.9 0.0
19/03:30pm 30.7 28.5 12.1 32 10.9 W 15 24 8 13 1012.0 1012.0 0.0
19/03:00pm 30.9 28.8 12.3 32 11.0 W 15 22 8 12 1012.1 1012.1 0.0
19/02:30pm 32.0 30.4 12.8 31 11.4 WNW 13 19 7 10 1012.5 1012.5 0.0
19/02:00pm 32.6 30.5 12.3 29 12.0 NW 15 24 8 13 1012.7 1012.7 0.0
19/01:30pm 32.5 30.7 12.2 29 12.0 NW 13 20 7 11 1013.0 1013.0 0.0
19/01:00pm 32.9 30.1 11.4 27 12.6 NW 17 24 9 13 1013.1 1013.1 0.0
19/12:30pm 33.0 30.2 11.5 27 12.6 NNW 17 30 9 16 1013.2 1013.2 0.0
19/12:00pm 33.6 31.4 12.0 27 12.8 NNW 15 22 8 12 1013.2 1013.2 0.0
19/11:30am 33.6 31.8 12.0 27 12.8 N 13 20 7 11 1013.5 1013.5 0.0
19/11:00am 33.0 31.6 12.1 28 12.4 N 11 15 6 8 1013.7 1013.7 0.0
19/10:30am 32.0 30.8 11.7 28 11.9 NNE 9 15 5 8 1014.3 1014.2 0.0
19/10:00am 30.7 29.5 11.6 31 11.1 NE 9 15 5 8 1014.7 1014.6 0.0
19/09:30am 30.2 29.0 11.7 32 10.8 ENE 9 17 5 9 1014.9 1014.8 0.0
19/09:00am 28.2 27.4 11.7 36 9.5 ENE 7 15 4 8 1015.1 1015.0 0.0
19/08:30am 26.6 25.0 11.5 39 8.6 E 11 17 6 9 1015.3 1015.2 0.0
19/08:00am 24.9 23.4 11.8 44 7.4 E 11 15 6 8 1015.4 1015.3 0.0
19/07:30am 23.5 22.0 11.9 48 6.6 ENE 11 17 6 9 1015.4 1015.3 0.0
19/07:00am 22.1 20.2 11.8 52 5.8 E 13 19 7 10 1015.6 1015.5 0.0
19/06:30am 21.1 19.8 11.4 54 5.4 E 9 15 5 8 1015.8 1015.7 0.0
19/06:00am 20.4 18.7 11.3 56 5.0 E 11 15 6 8 1015.8 1015.7 0.0
19/05:30am 20.6 19.3 11.2 55 5.2 ESE 9 13 5 7 1015.8 1015.7 0.0
19/05:00am 20.7 19.4 11.3 55 5.2 E 9 15 5 8 1015.6 1015.5 0.0
19/04:30am 21.1 19.5 11.4 54 5.4 E 11 20 6 11 1015.3 1015.2 0.0
19/04:00am 21.3 19.6 11.3 53 5.5 E 11 19 6 10 1015.4 1015.3 0.0
19/03:30am 21.8 19.7 11.2 51 5.9 E 13 20 7 11 1015.4 1015.3 0.0
19/03:00am 21.9 19.3 10.7 49 6.1 E 15 22 8 12 1015.4 1015.3 0.0
19/02:30am 22.1 19.3 9.9 46 6.6 E 15 20 8 11 1015.5 1015.4 0.0
19/02:00am 22.3 19.3 9.1 43 7.1 E 15 22 8 12 1015.5 1015.4 0.0
19/01:30am 23.1 19.0 8.0 38 7.9 ENE 19 30 10 16 1015.7 1015.6 0.0
19/01:00am 23.9 19.7 7.5 35 8.6 ENE 19 30 10 16 1015.8 1015.7 0.0
19/12:30am 24.5 20.2 7.2 33 9.1 ENE 19 32 10 17 1016.3 1016.2 0.0
19/12:00am 25.0 20.6 6.7 31 9.5 ENE 19 30 10 16 1016.6 1016.5 0.0
 
Date/Time
WST
Temp
°C
App
Temp
°C
Dew
Point
°C
Rel
Hum
%
Delta-T
°C
Wind Press
QNH
hPa
Press
MSL
hPa
Rain since
9am
mm
Dir  Spd
km/h
Gust
km/h
Spd
kts
Gust
kts
18/11:30pm 25.4 21.5 7.1 31 9.6 ENE 17 28 9 15 1016.3 1016.2 0.0
18/11:00pm 25.6 22.1 7.2 31 9.7 E 15 24 8 13 1016.8 1016.7 0.0
18/10:30pm 25.1 22.6 8.1 34 9.1 E 11 15 6 8 1017.3 1017.2 0.0

Other Formats:

Comma delimited format used in spreadsheet applications
http://www.bom.gov.au/fwo/IDW60801/IDW60801.94604.axf

JavaScript Object Notation format (JSON) in row-major order
http://www.bom.gov.au/fwo/IDW60801/IDW60801.94604.json